Wayland, Ohio
Current Conditions -  °F | °C
As of 11:00 AM on Friday 28 Nov 2014 (Local Time) from KPOV Reporting Station
Overcast Overcast  
Wind Chill: 14°   Ceiling: 3400
Heat Index: 23°   Visibility: 10mi
Dew Point: 13°   Wind: 8mph
Humidity: 67%   Direction: 250°WSW
Pressure: 30.33"   Gusts: NA
Location:  41.16°N, 81.07°W
Report Text: KPOV 281600Z AUTO 25007KT 10SM OVC034 M05/M10 A3033 RMK AO2 T10511104
Loading
Personal Weather Stations






























Interactive Weather Map New forecast layout! Learn more

10-Day Weather Forecast

Advertisements
Track Severe Weather on mobile